Time;durP1;ratioP1;P1;durP2;ratioP2;P2;SDS_P1;SDS_P2;PMS_P1;PMS_P2;Temp;Humidity;BMP_temperature;BMP_pressure;BME280_temperature;BME280_humidity;BME280_pressure;Samples;Min_cycle;Max_cycle;Signal;HPM_P1;HPM_P2
2022/11/02 00:00:12;;;;;;;;;;;;;;;11.11;93.67;100665.41;85808;1300;81336;-59
2022/11/02 00:02:39;;;;;;;;;;;;;;;11.13;93.74;100670.01;85810;1302;99566;-58
2022/11/02 00:04:46;;;;;;;;;;;;;;;11.16;93.70;100673.33;85827;1304;88941;-59
2022/11/02 00:06:55;;;;;;;;;;;;;;;11.19;93.67;100670.05;85826;1302;95460;-59
2022/11/02 00:09:03;;;;;;;;;;;;;;;11.18;93.67;100671.92;85788;1299;81755;-59
2022/11/02 00:11:11;;;;;;;;;;;;;;;11.22;93.70;100671.59;85842;1302;80127;-59
2022/11/02 00:13:20;;;;;;;;;;;;;;;11.23;93.71;100664.27;85814;1300;98740;-59
2022/11/02 00:15:30;;;;;;;;;;;;;;;11.25;93.76;100662.27;85898;1300;85658;-59
2022/11/02 00:17:38;;;;;;;;;;;;;;;11.24;93.76;100661.77;85846;1300;94109;-59
2022/11/02 00:19:45;;;;;;;;;;;;;;;11.27;93.75;100671.61;85819;1299;81040;-59
2022/11/02 00:21:54;;;;;;;;;;;;;;;11.29;93.70;100671.56;85852;1302;82632;-58
2022/11/02 00:24:02;;;;;;;;;;;;;;;11.28;93.70;100673.80;85835;1302;99089;-58
2022/11/02 00:26:10;;;;;;;;;;;;;;;11.26;93.70;100672.44;85878;1295;87826;-58
2022/11/02 00:28:18;;;;;;;;;;;;;;;11.25;93.73;100670.75;85795;1299;95179;-58
2022/11/02 00:30:25;;;;;;;;;;;;;;;11.27;93.69;100670.87;85834;1299;80866;-58
2022/11/02 00:32:32;;;;;;;;;;;;;;;11.27;93.72;100668.88;85817;1306;82472;-58
2022/11/02 00:34:39;;;;;;;;;;;;;;;11.29;93.76;100668.73;85798;1299;98988;-59
2022/11/02 00:36:47;;;;;;;;;;;;;;;11.31;93.77;100671.34;85774;1300;88173;-59
2022/11/02 00:38:54;;;;;;;;;;;;;;;11.30;93.73;100670.04;85788;1293;95034;-59
2022/11/02 00:41:00;;;;;;;;;;;;;;;11.27;93.78;100672.83;85789;1302;81438;-59
2022/11/02 00:43:07;;;;;;;;;;;;;;;11.29;93.66;100673.05;85813;1300;83221;-59
2022/11/02 00:45:14;;;;;;;;;;;;;;;11.30;93.69;100674.19;85805;1300;100128;-59
2022/11/02 00:47:22;;;;;;;;;;;;;;;11.28;93.77;100673.96;85787;1299;87908;-59
2022/11/02 00:49:29;;;;;;;;;;;;;;;11.29;93.67;100672.60;85803;1299;94976;-59
2022/11/02 00:51:36;;;;;;;;;;;;;;;11.30;93.67;100669.11;85819;1294;80482;-59
2022/11/02 00:53:44;;;;;;;;;;;;;;;11.30;93.65;100669.98;85866;1300;82853;-59
2022/11/02 00:55:52;;;;;;;;;;;;;;;11.28;93.60;100670.25;85899;1299;99643;-58
2022/11/02 00:57:59;;;;;;;;;;;;;;;11.28;93.61;100667.77;85834;1296;88886;-58
2022/11/02 01:00:10;;;;;;;;;;;;;;;11.25;93.69;100664.09;85815;1300;93890;-59
2022/11/02 01:02:17;;;;;;;;;;;;;;;11.27;93.62;100666.25;85883;1299;82939;-60
2022/11/02 01:04:24;;;;;;;;;;;;;;;11.31;93.70;100662.31;85852;1302;81696;-59
2022/11/02 01:06:31;;;;;;;;;;;;;;;11.30;93.73;100663.91;85828;1300;97019;-59
2022/11/02 01:08:40;;;;;;;;;;;;;;;11.27;93.63;100660.77;85808;1300;88408;-59
2022/11/02 01:10:47;;;;;;;;;;;;;;;11.27;93.64;100661.38;85838;1295;94969;-58
2022/11/02 01:12:55;;;;;;;;;;;;;;;11.30;93.70;100653.42;85798;1302;82348;-58
2022/11/02 01:15:09;;;;;;;;;;;;;;;11.32;93.71;100650.86;85783;1299;83180;-58
2022/11/02 01:17:16;;;;;;;;;;;;;;;11.36;93.77;100651.77;85756;1295;98028;-59
2022/11/02 01:19:26;;;;;;;;;;;;;;;11.38;93.69;100651.19;85780;1294;88799;-59
2022/11/02 01:21:33;;;;;;;;;;;;;;;11.40;93.75;100653.84;85798;1299;94632;-59
2022/11/02 01:23:40;;;;;;;;;;;;;;;11.39;93.79;100652.64;85773;1302;81715;-59
2022/11/02 01:25:49;;;;;;;;;;;;;;;11.41;93.81;100654.20;85791;1299;81945;-59
2022/11/02 01:27:57;;;;;;;;;;;;;;;11.40;93.75;100657.67;85808;1303;99901;-59
2022/11/02 01:30:06;;;;;;;;;;;;;;;11.41;93.82;100654.16;85794;1302;88243;-59
2022/11/02 01:32:18;;;;;;;;;;;;;;;11.40;93.87;100651.27;85785;1291;94528;-58
2022/11/02 01:34:25;;;;;;;;;;;;;;;11.41;93.79;100650.01;85793;1302;80918;-59
2022/11/02 01:36:35;;;;;;;;;;;;;;;11.45;93.79;100654.20;85839;1299;82561;-59
2022/11/02 01:38:43;;;;;;;;;;;;;;;11.48;93.69;100653.08;85834;1299;98291;-59
2022/11/02 01:40:50;;;;;;;;;;;;;;;11.49;93.74;100649.05;85827;1302;86314;-58
2022/11/02 01:42:57;;;;;;;;;;;;;;;11.48;93.77;100647.17;85820;1295;94432;-59
2022/11/02 01:45:04;;;;;;;;;;;;;;;11.48;93.85;100647.92;85844;1300;80262;-59
2022/11/02 01:47:18;;;;;;;;;;;;;;;11.46;93.77;100639.11;85824;1300;82067;-57
2022/11/02 01:49:25;;;;;;;;;;;;;;;11.45;93.68;100644.27;85774;1300;98409;-59
2022/11/02 01:51:36;;;;;;;;;;;;;;;11.47;93.72;100640.05;85813;1302;88758;-58
2022/11/02 01:53:45;;;;;;;;;;;;;;;11.46;93.72;100646.02;85800;1302;95254;-59
2022/11/02 01:55:53;;;;;;;;;;;;;;;11.46;93.86;100646.89;85843;1296;81340;-59
2022/11/02 01:58:06;;;;;;;;;;;;;;;11.46;93.81;100645.41;85779;1299;82920;-59
2022/11/02 02:00:16;;;;;;;;;;;;;;;11.44;93.78;100650.02;85527;1299;382936;-59
2022/11/02 02:02:25;;;;;;;;;;;;;;;11.42;93.84;100653.48;85836;1299;87570;-59
2022/11/02 02:04:33;;;;;;;;;;;;;;;11.41;93.89;100654.73;85768;1296;94647;-59
2022/11/02 02:06:44;;;;;;;;;;;;;;;11.39;93.95;100651.02;85799;1302;81181;-59
2022/11/02 02:08:51;;;;;;;;;;;;;;;11.41;94.08;100651.83;85749;1300;80037;-57
2022/11/02 02:11:02;;;;;;;;;;;;;;;11.40;94.00;100653.98;85792;1300;99581;-59
2022/11/02 02:13:10;;;;;;;;;;;;;;;11.38;94.13;100653.19;85774;1301;86808;-59
2022/11/02 02:15:24;;;;;;;;;;;;;;;11.39;94.00;100655.41;85759;1293;93598;-58
2022/11/02 02:17:38;;;;;;;;;;;;;;;11.41;94.09;100654.04;85779;1300;81087;-58
2022/11/02 02:19:50;;;;;;;;;;;;;;;11.44;94.10;100646.83;85806;1300;82459;-57
2022/11/02 02:22:09;;;;;;;;;;;;;;;11.42;94.08;100651.18;85837;1297;101455;-59
2022/11/02 02:24:35;;;;;;;;;;;;;;;11.41;94.17;100649.09;85800;1296;87882;-59
2022/11/02 02:26:58;;;;;;;;;;;;;;;11.41;94.16;100652.11;85855;1299;95357;-60
2022/11/02 02:29:10;;;;;;;;;;;;;;;11.42;94.18;100652.21;85821;1300;81169;-59
2022/11/02 02:31:24;;;;;;;;;;;;;;;11.46;94.23;100654.16;85804;1286;82093;-59
2022/11/02 02:33:35;;;;;;;;;;;;;;;11.43;94.28;100655.77;85828;1295;100542;-59
2022/11/02 02:35:46;;;;;;;;;;;;;;;11.42;94.38;100651.00;85854;1302;88489;-59
2022/11/02 02:37:57;;;;;;;;;;;;;;;11.45;94.36;100652.79;85818;1302;95988;-59
2022/11/02 02:40:13;;;;;;;;;;;;;;;11.44;94.29;100656.19;85806;1299;81753;-58
2022/11/02 02:42:23;;;;;;;;;;;;;;;11.47;94.34;100661.90;85842;1297;82339;-58
2022/11/02 02:44:35;;;;;;;;;;;;;;;11.44;94.40;100659.74;85775;1302;98360;-58
2022/11/02 02:46:46;;;;;;;;;;;;;;;11.45;94.34;100662.37;85815;1302;89743;-59
2022/11/02 02:48:56;;;;;;;;;;;;;;;11.46;94.44;100658.30;85782;1299;95342;-59
2022/11/02 02:51:06;;;;;;;;;;;;;;;11.48;94.36;100662.04;85828;1294;82087;-59
2022/11/02 02:53:14;;;;;;;;;;;;;;;11.48;94.47;100664.16;85808;1296;82346;-60
2022/11/02 02:55:28;;;;;;;;;;;;;;;11.52;94.44;100663.16;85788;1300;99069;-58
2022/11/02 02:57:36;;;;;;;;;;;;;;;11.52;94.41;100665.32;85798;1299;88355;-58
2022/11/02 02:59:47;;;;;;;;;;;;;;;11.52;94.45;100662.88;85794;1295;93502;-59
2022/11/02 03:01:55;;;;;;;;;;;;;;;11.54;94.51;100665.17;85826;1302;82650;-60
2022/11/02 03:04:04;;;;;;;;;;;;;;;11.56;94.44;100659.89;85786;1302;83025;-59
2022/11/02 03:06:19;;;;;;;;;;;;;;;11.54;94.60;100658.27;85835;1300;99130;-59
2022/11/02 03:08:26;;;;;;;;;;;;;;;11.54;94.67;100659.89;85810;1302;89744;-59
2022/11/02 03:10:37;;;;;;;;;;;;;;;11.56;94.71;100663.18;85835;1294;94278;-58
2022/11/02 03:12:55;;;;;;;;;;;;;;;11.57;94.67;100667.55;85825;1291;80955;-58
2022/11/02 03:15:10;;;;;;;;;;;;;;;11.61;94.70;100659.36;85850;1299;81512;-58
2022/11/02 03:17:24;;;;;;;;;;;;;;;11.62;94.55;100655.80;85865;1299;99208;-58
2022/11/02 03:19:37;;;;;;;;;;;;;;;11.63;94.58;100659.55;85885;1302;88300;-58
2022/11/02 03:21:48;;;;;;;;;;;;;;;11.62;94.61;100661.80;85864;1300;95329;-57
2022/11/02 03:24:00;;;;;;;;;;;;;;;11.62;94.76;100656.63;85895;1299;82372;-58
2022/11/02 03:26:12;;;;;;;;;;;;;;;11.65;94.68;100660.86;85853;1300;82181;-58
2022/11/02 03:28:26;;;;;;;;;;;;;;;11.66;94.70;100662.22;85847;1302;98561;-58
2022/11/02 03:30:40;;;;;;;;;;;;;;;11.68;94.65;100663.92;85853;1296;88249;-58
2022/11/02 03:32:56;;;;;;;;;;;;;;;11.71;94.69;100667.18;85824;1301;94502;-59
2022/11/02 03:35:09;;;;;;;;;;;;;;;11.73;94.69;100663.40;85811;1294;81780;-59
2022/11/02 03:37:20;;;;;;;;;;;;;;;11.74;94.70;100663.73;85800;1300;82225;-59
2022/11/02 03:39:33;;;;;;;;;;;;;;;11.74;94.71;100668.84;85701;1304;97851;-59
2022/11/02 03:41:44;;;;;;;;;;;;;;;11.75;94.60;100669.04;85811;1302;90512;-59
2022/11/02 03:43:57;;;;;;;;;;;;;;;11.77;94.64;100671.64;85794;1294;94836;-59
2022/11/02 03:46:06;;;;;;;;;;;;;;;11.80;94.69;100675.15;85824;1302;81813;-58
2022/11/02 03:48:15;;;;;;;;;;;;;;;11.79;94.71;100677.89;85801;1301;83122;-58
2022/11/02 03:50:26;;;;;;;;;;;;;;;11.79;94.75;100677.90;85833;1302;99814;-59
2022/11/02 03:52:35;;;;;;;;;;;;;;;11.80;94.74;100671.66;85797;1300;88669;-59
2022/11/02 03:54:46;;;;;;;;;;;;;;;11.83;94.72;100672.73;85801;1299;93095;-58
2022/11/02 03:56:56;;;;;;;;;;;;;;;11.81;94.73;100673.52;85852;1302;81657;-59
2022/11/02 03:59:03;;;;;;;;;;;;;;;11.85;94.94;100679.21;85729;1297;80902;-59
2022/11/02 04:01:11;;;;;;;;;;;;;;;11.87;94.92;100680.77;85838;1302;98179;-58
2022/11/02 04:03:20;;;;;;;;;;;;;;;11.93;94.92;100680.34;85855;1296;89030;-58
2022/11/02 04:05:31;;;;;;;;;;;;;;;11.98;94.93;100686.36;85866;1296;94860;-59
2022/11/02 04:10:10;;;;;;;;;;;;;;;12.02;94.97;100687.03;85902;1302;83064;-58
2022/11/02 04:14:46;;;;;;;;;;;;;;;11.96;94.97;100689.17;85870;1302;89582;-58
2022/11/02 04:19:26;;;;;;;;;;;;;;;11.98;95.00;100689.69;85811;1302;93815;-59
2022/11/02 04:19:28;;;;;;;;;;;;;;;12.02;94.96;100688.77;85784;1300;80209;-59
2022/11/02 04:21:36;;;;;;;;;;;;;;;12.01;95.06;100685.06;85871;1302;82661;-58
2022/11/02 04:26:08;;;;;;;;;;;;;;;12.11;95.02;100689.49;85829;1302;87531;-59
2022/11/02 04:28:16;;;;;;;;;;;;;;;12.08;95.04;100684.55;85794;1281;95364;-59
2022/11/02 04:30:25;;;;;;;;;;;;;;;12.08;95.23;100684.93;85794;1303;82463;-59
2022/11/02 04:35:09;;;;;;;;;;;;;;;12.12;95.47;100685.92;85803;1294;99386;-59
2022/11/02 04:39:38;;;;;;;;;;;;;;;12.12;95.30;100691.21;85792;1300;95204;-58
2022/11/02 04:41:46;;;;;;;;;;;;;;;12.16;95.46;100693.59;85788;1299;81705;-59
2022/11/02 04:43:55;;;;;;;;;;;;;;;12.17;95.40;100694.80;85829;1294;82024;-59
2022/11/02 04:46:02;;;;;;;;;;;;;;;12.18;95.38;100691.95;85822;1294;99973;-59
2022/11/02 04:48:10;;;;;;;;;;;;;;;12.23;95.59;100690.80;85815;1296;87686;-58
2022/11/02 04:50:19;;;;;;;;;;;;;;;12.24;95.55;100693.31;85815;1299;94720;-59
2022/11/02 04:52:27;;;;;;;;;;;;;;;12.24;95.59;100689.19;85822;1302;82608;-59
2022/11/02 04:54:35;;;;;;;;;;;;;;;12.25;95.63;100690.52;85802;1296;82761;-58
2022/11/02 04:56:49;;;;;;;;;;;;;;;12.26;95.51;100688.16;85803;1302;97796;-58
2022/11/02 04:58:58;;;;;;;;;;;;;;;12.25;95.64;100691.08;85706;1295;88830;-59
2022/11/02 05:01:09;;;;;;;;;;;;;;;12.23;95.70;100691.52;85785;1302;93087;-59
2022/11/02 05:03:16;;;;;;;;;;;;;;;12.23;95.73;100689.83;85818;1296;81602;-59
2022/11/02 05:05:25;;;;;;;;;;;;;;;12.27;95.70;100693.67;85862;1302;81096;-60
2022/11/02 05:07:32;;;;;;;;;;;;;;;12.26;95.72;100691.08;85802;1302;98661;-59
2022/11/02 05:09:42;;;;;;;;;;;;;;;12.29;95.87;100696.18;85844;1300;88809;-59
2022/11/02 05:11:49;;;;;;;;;;;;;;;12.32;95.88;100694.64;85814;1296;95820;-59
2022/11/02 05:13:56;;;;;;;;;;;;;;;12.35;95.97;100697.21;85771;1299;80617;-59
2022/11/02 05:16:05;;;;;;;;;;;;;;;12.36;95.89;100703.17;85738;1304;83963;-58
2022/11/02 05:18:13;;;;;;;;;;;;;;;12.35;95.78;100707.80;85819;1302;98679;-59
2022/11/02 05:20:20;;;;;;;;;;;;;;;12.35;95.81;100707.81;85830;1299;88948;-59
2022/11/02 05:22:28;;;;;;;;;;;;;;;12.36;95.86;100709.32;85807;1303;95283;-60
2022/11/02 05:24:36;;;;;;;;;;;;;;;12.41;95.97;100713.77;85760;1302;81954;-60
2022/11/02 05:26:46;;;;;;;;;;;;;;;12.40;96.01;100711.39;85837;1302;80766;-58
2022/11/02 05:28:53;;;;;;;;;;;;;;;12.39;95.91;100714.86;85775;1294;99017;-58
2022/11/02 05:31:02;;;;;;;;;;;;;;;12.42;96.00;100715.23;85857;1296;88914;-58
2022/11/02 05:33:09;;;;;;;;;;;;;;;12.43;96.00;100720.89;85799;1302;94993;-58
2022/11/02 05:35:17;;;;;;;;;;;;;;;12.45;96.11;100717.57;85818;1297;82345;-58
2022/11/02 05:37:27;;;;;;;;;;;;;;;12.47;96.24;100717.08;85749;1304;81706;-59
2022/11/02 05:39:36;;;;;;;;;;;;;;;12.44;96.27;100717.40;85815;1300;99978;-58
2022/11/02 05:41:44;;;;;;;;;;;;;;;12.44;96.21;100719.17;85859;1294;88810;-58
2022/11/02 05:43:51;;;;;;;;;;;;;;;12.46;96.25;100727.61;85815;1296;95522;-58
2022/11/02 05:46:02;;;;;;;;;;;;;;;12.43;96.22;100726.55;85826;1296;81397;-60
2022/11/02 05:48:10;;;;;;;;;;;;;;;12.47;96.34;100729.51;85823;1294;83033;-59
2022/11/02 05:50:18;;;;;;;;;;;;;;;12.46;96.45;100734.63;85846;1294;99579;-58
2022/11/02 05:52:26;;;;;;;;;;;;;;;12.48;96.51;100731.92;85791;1299;89725;-58
2022/11/02 05:54:34;;;;;;;;;;;;;;;12.48;96.57;100739.14;85796;1295;94525;-58
2022/11/02 05:56:41;;;;;;;;;;;;;;;12.46;96.61;100738.49;85721;1304;82814;-59
2022/11/02 05:58:48;;;;;;;;;;;;;;;12.47;96.57;100742.71;85788;1296;81970;-59
2022/11/02 06:00:58;;;;;;;;;;;;;;;12.49;96.63;100746.20;85796;1294;99240;-60
2022/11/02 06:03:06;;;;;;;;;;;;;;;12.50;96.72;100742.09;85804;1296;88069;-59
2022/11/02 06:05:13;;;;;;;;;;;;;;;12.53;96.65;100742.66;85765;1299;95175;-59
2022/11/02 06:07:23;;;;;;;;;;;;;;;12.55;96.69;100741.80;85794;1297;81021;-59
2022/11/02 06:09:32;;;;;;;;;;;;;;;12.53;96.71;100744.73;85800;1300;82145;-59
2022/11/02 06:11:39;;;;;;;;;;;;;;;12.55;96.70;100751.36;85797;1294;99469;-59
2022/11/02 06:13:49;;;;;;;;;;;;;;;12.60;96.73;100750.95;85782;1300;88614;-60
2022/11/02 06:15:58;;;;;;;;;;;;;;;12.60;96.66;100753.48;85805;1296;94779;-59
2022/11/02 06:18:06;;;;;;;;;;;;;;;12.59;96.63;100756.27;85715;1302;81880;-59
2022/11/02 06:20:14;;;;;;;;;;;;;;;12.60;96.62;100761.11;85819;1300;82527;-59
2022/11/02 06:22:22;;;;;;;;;;;;;;;12.61;96.64;100759.46;85797;1302;98702;-58
2022/11/02 06:24:31;;;;;;;;;;;;;;;12.66;96.75;100761.38;85852;1299;88847;-59
2022/11/02 06:26:38;;;;;;;;;;;;;;;12.68;96.60;100761.27;85812;1299;93730;-59
2022/11/02 06:28:45;;;;;;;;;;;;;;;12.69;96.63;100771.83;85816;1304;82116;-59
2022/11/02 06:30:53;;;;;;;;;;;;;;;12.73;96.66;100772.75;85861;1299;81327;-58
2022/11/02 06:33:00;;;;;;;;;;;;;;;12.70;96.84;100774.18;85881;1296;99278;-58
2022/11/02 06:35:11;;;;;;;;;;;;;;;12.73;96.84;100774.66;85870;1301;89149;-58
2022/11/02 06:37:21;;;;;;;;;;;;;;;12.72;96.89;100772.50;85862;1297;94159;-59
2022/11/02 06:39:30;;;;;;;;;;;;;;;12.70;96.70;100772.23;85835;1296;82504;-60
2022/11/02 06:41:37;;;;;;;;;;;;;;;12.70;96.77;100778.05;85849;1296;82758;-59
2022/11/02 06:43:44;;;;;;;;;;;;;;;12.73;96.60;100777.84;85811;1300;100021;-59
2022/11/02 06:45:55;;;;;;;;;;;;;;;12.74;96.45;100777.98;85860;1297;88374;-59
2022/11/02 06:48:04;;;;;;;;;;;;;;;12.78;96.46;100779.00;85795;1302;94562;-59
2022/11/02 06:50:12;;;;;;;;;;;;;;;12.82;96.41;100779.34;85814;1296;82869;-59
2022/11/02 06:52:19;;;;;;;;;;;;;;;12.87;96.53;100777.48;85801;1287;81423;-60
2022/11/02 06:54:27;;;;;;;;;;;;;;;12.92;96.45;100777.89;85774;1296;98623;-60
2022/11/02 06:56:36;;;;;;;;;;;;;;;12.96;96.37;100775.21;85830;1302;86239;-60
2022/11/02 06:58:43;;;;;;;;;;;;;;;12.98;96.44;100778.48;85802;1294;94793;-60
2022/11/02 07:00:57;;;;;;;;;;;;;;;13.03;96.35;100774.77;85785;1300;81253;-60
2022/11/02 07:03:08;;;;;;;;;;;;;;;13.11;96.26;100781.25;85711;1296;81138;-60
2022/11/02 07:05:19;;;;;;;;;;;;;;;13.18;96.40;100783.94;85806;1296;99175;-59
2022/11/02 07:07:29;;;;;;;;;;;;;;;13.23;96.31;100787.27;85820;1296;89662;-59
2022/11/02 07:09:40;;;;;;;;;;;;;;;13.27;96.31;100785.30;85808;1299;94554;-59
2022/11/02 07:11:47;;;;;;;;;;;;;;;13.32;96.24;100785.52;85798;1302;82257;-58
2022/11/02 07:13:54;;;;;;;;;;;;;;;13.37;96.23;100786.51;85825;1294;81679;-58
2022/11/02 07:16:03;;;;;;;;;;;;;;;13.37;96.10;100784.79;85687;1303;101204;-59
2022/11/02 07:18:12;;;;;;;;;;;;;;;13.37;95.91;100783.50;85774;1302;87626;-59
2022/11/02 07:20:20;;;;;;;;;;;;;;;13.40;95.94;100786.61;85781;1296;93653;-59
2022/11/02 07:22:30;;;;;;;;;;;;;;;13.70;96.47;100785.27;85733;1304;80880;-60
2022/11/02 07:24:36;;;;;;;;;;;;;;;14.11;96.58;100786.18;85774;1296;81595;-59
2022/11/02 07:26:45;;;;;;;;;;;;;;;14.47;96.34;100787.20;85775;1295;99982;-60
2022/11/02 07:28:59;;;;;;;;;;;;;;;14.95;95.78;100784.57;85765;1298;87694;-60
2022/11/02 07:31:08;;;;;;;;;;;;;;;15.64;94.96;100784.79;85754;1296;95026;-59
2022/11/02 07:33:15;;;;;;;;;;;;;;;16.27;93.99;100783.55;85728;1294;81637;-58
2022/11/02 07:35:24;;;;;;;;;;;;;;;16.48;92.76;100779.15;85779;1302;82656;-60
2022/11/02 07:37:31;;;;;;;;;;;;;;;16.85;91.68;100778.35;85703;1303;99404;-60
2022/11/02 07:39:38;;;;;;;;;;;;;;;17.39;90.81;100780.68;85697;1304;88431;-60
2022/11/02 07:41:45;;;;;;;;;;;;;;;17.77;89.78;100781.33;85720;1303;94864;-59
2022/11/02 07:43:52;;;;;;;;;;;;;;;17.85;89.17;100779.35;85724;1288;80713;-59
2022/11/02 07:46:01;;;;;;;;;;;;;;;17.76;88.89;100786.48;85737;1303;80644;-58
2022/11/02 07:48:09;;;;;;;;;;;;;;;17.82;88.88;100784.59;85738;1304;99992;-59
2022/11/02 07:50:18;;;;;;;;;;;;;;;18.02;88.58;100782.77;85754;1293;86764;-59
2022/11/02 07:52:25;;;;;;;;;;;;;;;17.85;87.85;100781.76;85743;1297;94945;-59
2022/11/02 07:54:32;;;;;;;;;;;;;;;17.62;87.74;100780.52;85736;1303;78037;-58
2022/11/02 07:56:38;;;;;;;;;;;;;;;17.43;87.48;100782.50;85785;1296;82632;-60
2022/11/02 07:58:46;;;;;;;;;;;;;;;17.10;87.13;100779.88;85749;1296;99970;-60
2022/11/02 08:00:53;;;;;;;;;;;;;;;17.04;87.69;100783.20;85791;1296;88318;-64
2022/11/02 08:03:02;;;;;;;;;;;;;;;16.94;87.77;100784.83;85736;1296;94868;-67
2022/11/02 08:05:12;;;;;;;;;;;;;;;16.94;88.12;100788.20;85746;1304;78805;-59
2022/11/02 08:07:19;;;;;;;;;;;;;;;16.88;87.88;100790.13;85786;1304;83222;-59
2022/11/02 08:09:26;;;;;;;;;;;;;;;16.70;87.48;100784.63;85787;1297;99281;-59
2022/11/02 08:11:48;;;;;;;;;;;;;;;16.62;87.57;100785.55;85737;1298;89162;-58
2022/11/02 08:13:57;;;;;;;;;;;;;;;16.60;87.48;100780.07;85723;1303;95850;-58
2022/11/02 08:16:08;;;;;;;;;;;;;;;16.51;87.40;100784.44;85762;1302;79167;-58
2022/11/02 08:18:35;;;;;;;;;;;;;;;16.35;87.51;100783.47;85829;1294;82571;-58
2022/11/02 08:20:46;;;;;;;;;;;;;;;16.29;87.61;100789.19;85851;1301;98198;-59
2022/11/02 08:22:53;;;;;;;;;;;;;;;16.16;87.34;100786.73;85859;1294;88410;-59
2022/11/02 08:25:07;;;;;;;;;;;;;;;16.03;87.13;100784.94;85761;1295;95140;-58
2022/11/02 08:27:19;;;;;;;;;;;;;;;16.07;87.54;100786.67;85792;1301;82090;-58
2022/11/02 08:29:29;;;;;;;;;;;;;;;16.04;87.57;100785.85;85826;1291;82715;-58
2022/11/02 08:31:39;;;;;;;;;;;;;;;16.00;87.57;100783.61;85852;1294;99273;-59
2022/11/02 08:33:49;;;;;;;;;;;;;;;15.94;87.22;100785.52;85839;1295;88143;-59
2022/11/02 08:36:23;;;;;;;;;;;;;;;15.94;87.39;100780.58;85863;1300;94320;-58
2022/11/02 08:38:38;;;;;;;;;;;;;;;15.98;87.56;100781.85;85839;1300;80395;-59
2022/11/02 08:40:56;;;;;;;;;;;;;;;16.10;87.69;100780.42;85870;1294;82353;-59
2022/11/02 08:43:13;;;;;;;;;;;;;;;16.17;87.62;100783.17;85869;1300;99186;-59
2022/11/02 08:45:29;;;;;;;;;;;;;;;16.29;87.46;100777.06;85858;1301;89355;-58
2022/11/02 08:47:49;;;;;;;;;;;;;;;16.29;87.30;100780.34;85820;1294;95867;-58
2022/11/02 08:50:02;;;;;;;;;;;;;;;16.31;87.25;100779.78;85788;1300;82765;-59
2022/11/02 08:52:12;;;;;;;;;;;;;;;16.36;87.18;100779.05;85824;1293;80843;-59
2022/11/02 08:54:24;;;;;;;;;;;;;;;16.31;86.84;100779.58;85849;1293;97888;-59
2022/11/02 08:56:42;;;;;;;;;;;;;;;16.19;86.81;100784.11;85837;1301;88318;-59
2022/11/02 08:58:52;;;;;;;;;;;;;;;16.10;86.79;100788.85;85821;1301;96004;-60
2022/11/02 09:01:07;;;;;;;;;;;;;;;16.04;86.68;100790.85;85857;1293;80312;-60
2022/11/02 09:05:24;;;;;;;30.70;23.40;;;;;;;16.00;86.57;100789.39;83280;1340;601174;-59
2022/11/02 09:07:41;;;;;;;30.80;22.90;;;;;;;15.92;86.23;100788.20;85542;1307;79152;-59
2022/11/02 09:09:58;;;;;;;29.50;21.10;;;;;;;15.87;86.37;100786.45;85231;1304;81795;-59
2022/11/02 09:12:17;;;;;;;29.70;22.60;;;;;;;15.82;86.25;100785.02;85472;1309;97069;-60
2022/11/02 09:14:31;;;;;;;30.80;23.00;;;;;;;15.77;86.05;100790.00;85458;1307;90146;-60
2022/11/02 09:16:49;;;;;;;31.00;22.60;;;;;;;15.72;86.33;100783.06;85502;1301;95932;-60
2022/11/02 09:19:05;;;;;;;29.80;22.00;;;;;;;15.72;86.07;100785.12;85294;1308;322733;-59
2022/11/02 09:21:25;;;;;;;35.50;21.40;;;;;;;15.65;85.58;100780.54;85588;1304;82339;-59
2022/11/02 09:23:47;;;;;;;28.70;21.50;;;;;;;15.55;85.38;100782.80;85605;1304;97812;-60
2022/11/02 09:26:06;;;;;;;33.60;22.50;;;;;;;15.55;85.66;100780.63;85871;1301;89109;-59
2022/11/02 09:28:23;;;;;;;30.90;22.20;;;;;;;15.54;85.57;100784.03;85866;1301;94795;-58
2022/11/02 09:30:39;;;;;;;29.90;22.70;;;;;;;15.51;85.79;100782.36;85867;1302;80623;-59
2022/11/02 09:32:59;;;;;;;31.40;22.80;;;;;;;15.52;85.66;100785.83;85856;1295;81520;-60
2022/11/02 09:35:12;;;;;;;29.80;22.40;;;;;;;15.53;85.84;100787.13;85870;1301;98257;-59
2022/11/02 09:37:23;;;;;;;30.10;22.40;;;;;;;15.53;85.78;100784.40;85877;1295;88519;-59
2022/11/02 09:39:32;;;;;;;26.80;20.20;;;;;;;15.51;85.65;100786.58;85869;1294;94883;-59
2022/11/02 09:41:58;;;;;;;28.50;20.10;;;;;;;15.48;85.55;100785.58;85852;1302;81809;-60
2022/11/02 09:44:14;;;;;;;25.80;19.00;;;;;;;15.44;85.37;100786.89;85862;1301;82062;-58
2022/11/02 09:46:30;;;;;;;26.70;19.50;;;;;;;15.40;85.25;100788.41;85850;1301;97508;-59
2022/11/02 09:48:40;;;;;;;;;;;;;;;15.33;85.16;100785.77;85874;1301;87848;-60
2022/11/02 09:50:58;;;;;;;26.20;19.50;;;;;;;15.24;85.29;100786.55;85852;1307;94925;-58
2022/11/02 09:53:15;;;;;;;29.50;21.40;;;;;;;15.28;85.36;100791.07;85821;1302;80218;-59
2022/11/02 09:55:30;;;;;;;29.50;21.30;;;;;;;15.30;85.34;100790.88;85873;1301;82865;-58
2022/11/02 09:57:45;;;;;;;30.70;21.20;;;;;;;15.34;85.47;100790.90;85843;1296;97555;-59
2022/11/02 09:59:55;;;;;;;29.40;21.50;;;;;;;15.32;85.43;100792.09;85826;1299;89078;-60
2022/11/02 10:02:19;;;;;;;34.40;21.70;;;;;;;15.30;85.50;100791.46;85833;1294;93101;-61
2022/11/02 10:05:00;;;;;;;29.90;22.50;;;;;;;15.29;85.47;100791.14;85838;1301;81688;-58
2022/11/02 10:07:21;;;;;;;32.20;20.70;;;;;;;15.16;85.62;100792.74;85836;1295;81587;-59
2022/11/02 10:09:41;;;;;;;29.40;21.50;;;;;;;15.13;85.65;100794.80;85823;1301;97760;-59
2022/11/02 10:12:08;;;;;;;27.00;20.70;;;;;;;15.16;85.56;100791.77;85834;1299;88887;-59
2022/11/02 10:14:24;;;;;;;27.50;20.30;;;;;;;15.17;85.52;100795.71;85864;1299;94145;-60
2022/11/02 10:16:37;;;;;;;28.30;18.80;;;;;;;15.19;85.61;100793.64;85851;1302;82192;-60
2022/11/02 10:18:52;;;;;;;26.90;18.70;;;;;;;15.15;85.58;100797.55;85903;1302;83509;-59
2022/11/02 10:21:06;;;;;;;29.20;19.10;;;;;;;15.10;85.46;100794.73;85850;1302;98196;-61
2022/11/02 10:23:25;;;;;;;26.00;18.80;;;;;;;15.08;85.54;100793.20;85824;1300;88462;-59
2022/11/02 10:25:37;;;;;;;26.50;19.20;;;;;;;15.05;85.59;100795.55;85858;1301;95683;-60
2022/11/02 10:27:54;;;;;;;27.60;20.40;;;;;;;15.06;85.64;100794.08;85832;1301;80670;-59
2022/11/02 10:30:18;;;;;;;29.00;20.30;;;;;;;15.09;85.74;100791.85;85843;1302;80802;-59
2022/11/02 10:32:35;;;;;;;28.60;20.80;;;;;;;15.10;85.84;100790.31;85834;1304;97256;-60
2022/11/02 10:34:44;;;;;;;;;;;;;;;15.10;85.73;100789.76;85991;1301;88593;-60
2022/11/02 10:37:11;;;;;;;27.40;19.70;;;;;;;15.11;85.77;100789.64;85968;1298;95970;-60
2022/11/02 10:39:33;;;;;;;24.60;18.70;;;;;;;15.13;85.79;100793.70;85932;1302;82221;-60
2022/11/02 10:42:05;;;;;;;30.10;19.70;;;;;;;15.16;85.87;100790.23;85986;1298;83435;-59
2022/11/02 10:44:38;;;;;;;26.60;19.20;;;;;;;15.17;85.87;100789.89;85960;1298;96973;-59
2022/11/02 10:47:04;;;;;;;28.10;19.60;;;;;;;15.16;85.77;100795.04;85976;1297;89346;-58
2022/11/02 10:49:29;;;;;;;27.20;19.30;;;;;;;15.13;85.75;100795.83;85971;1294;95030;-59
2022/11/02 10:51:38;;;;;;;27.20;19.80;;;;;;;15.15;85.90;100796.02;85973;1300;81815;-59
2022/11/02 10:53:53;;;;;;;28.10;18.40;;;;;;;15.20;85.91;100795.63;85952;1298;82949;-59
2022/11/02 10:56:10;;;;;;;29.50;19.50;;;;;;;15.21;85.80;100797.89;86011;1293;98750;-60
2022/11/02 10:58:28;;;;;;;27.00;18.70;;;;;;;15.19;85.93;100796.00;85928;1301;87090;-59
2022/11/02 11:00:40;;;;;;;27.70;19.20;;;;;;;15.22;85.84;100797.67;85986;1304;94796;-59
2022/11/02 11:03:06;;;;;;;25.90;19.10;;;;;;;15.26;85.82;100795.28;85937;1302;81702;-59
2022/11/02 11:05:23;;;;;;;23.90;18.40;;;;;;;15.25;85.83;100796.34;85939;1293;83125;-59
2022/11/02 11:07:32;;;;;;;25.20;17.20;;;;;;;15.29;85.74;100794.83;85853;1302;98623;-59
2022/11/02 11:09:50;;;;;;;24.80;18.20;;;;;;;15.31;85.52;100798.30;85998;1299;88332;-60
2022/11/02 11:12:04;;;;;;;24.00;18.00;;;;;;;15.31;85.68;100792.64;85991;1293;93732;-60